createdAt,value
2018-06-02T00:00:01.491Z,15.70
2018-06-02T00:02:29.852Z,15.60
2018-06-02T00:04:59.295Z,15.50
2018-06-02T00:07:27.687Z,15.50
2018-06-02T00:09:56.178Z,15.40
2018-06-02T00:12:24.590Z,15.40
2018-06-02T00:14:53.826Z,15.40
2018-06-02T00:17:22.206Z,15.40
2018-06-02T00:19:51.991Z,15.30
2018-06-02T00:22:21.135Z,15.20
2018-06-02T00:24:49.515Z,15.20
2018-06-02T00:27:17.924Z,15.10
2018-06-02T00:29:46.291Z,15.10
2018-06-02T00:32:14.696Z,15.00
2018-06-02T00:34:43.156Z,15.00
2018-06-02T00:37:12.379Z,15.00
2018-06-02T00:39:40.786Z,14.90
2018-06-02T00:42:09.392Z,14.90
2018-06-02T00:44:37.899Z,15.00
2018-06-02T00:47:06.305Z,14.90
2018-06-02T00:49:34.734Z,14.90
2018-06-02T00:52:03.198Z,14.90
2018-06-02T00:54:43.622Z,14.90
2018-06-02T00:57:12.166Z,14.90
2018-06-02T00:59:40.712Z,15.00
2018-06-02T01:02:09.409Z,14.90
2018-06-02T01:04:38.663Z,14.80
2018-06-02T01:07:07.226Z,14.80
2018-06-02T01:09:36.250Z,14.80
2018-06-02T01:12:05.639Z,14.70
2018-06-02T01:14:34.903Z,14.50
2018-06-02T01:17:04.235Z,14.50
2018-06-02T01:19:32.778Z,14.50
2018-06-02T01:22:02.095Z,14.40
2018-06-02T01:24:31.444Z,14.40
2018-06-02T01:26:59.816Z,14.30
2018-06-02T01:29:29.132Z,14.30
2018-06-02T01:31:58.220Z,14.30
2018-06-02T01:34:27.511Z,14.30
2018-06-02T01:36:56.204Z,14.30
2018-06-02T01:39:24.604Z,14.30
2018-06-02T01:41:53.148Z,14.20
2018-06-02T01:44:22.507Z,14.20
2018-06-02T01:46:50.892Z,14.20
2018-06-02T01:49:19.296Z,14.20
2018-06-02T01:51:47.734Z,14.20
2018-06-02T01:54:16.131Z,14.20
2018-06-02T01:56:44.596Z,14.20
2018-06-02T01:59:13.876Z,14.20
2018-06-02T02:01:42.311Z,14.20
2018-06-02T02:04:10.759Z,14.20
2018-06-02T02:06:41.304Z,14.10
2018-06-02T02:09:09.728Z,14.00
2018-06-02T02:11:38.979Z,14.00
2018-06-02T02:14:07.350Z,14.00
2018-06-02T02:16:36.590Z,13.90
2018-06-02T02:19:05.027Z,13.90
2018-06-02T02:21:34.393Z,13.80
2018-06-02T02:24:02.815Z,13.80
2018-06-02T02:26:31.386Z,13.80
2018-06-02T02:28:59.757Z,13.70
2018-06-02T02:31:28.143Z,13.60
2018-06-02T02:33:57.111Z,13.60
2018-06-02T02:36:25.570Z,13.60
2018-06-02T02:38:55.032Z,13.60
2018-06-02T02:41:23.394Z,13.60
2018-06-02T02:43:52.088Z,13.60
2018-06-02T02:46:20.649Z,13.60
2018-06-02T02:48:49.959Z,13.50
2018-06-02T02:51:19.994Z,13.50
2018-06-02T02:53:49.196Z,13.40
2018-06-02T02:56:19.028Z,13.40
2018-06-02T02:58:47.406Z,13.40
2018-06-02T03:01:16.591Z,13.30
2018-06-02T03:03:45.795Z,13.30
2018-06-02T03:06:14.202Z,13.20
2018-06-02T03:08:42.679Z,13.20
2018-06-02T03:11:11.863Z,13.20
2018-06-02T03:13:41.189Z,13.20
2018-06-02T03:16:09.642Z,13.20
2018-06-02T03:18:39.876Z,13.20
2018-06-02T03:21:08.250Z,13.20
2018-06-02T03:23:37.603Z,13.30
2018-06-02T03:26:06.875Z,13.30
2018-06-02T03:28:35.299Z,13.30
2018-06-02T03:31:03.672Z,13.40
2018-06-02T03:33:32.214Z,13.50
2018-06-02T03:36:01.565Z,13.60
2018-06-02T03:38:30.723Z,13.60
2018-06-02T03:41:00.055Z,13.60
2018-06-02T03:43:28.744Z,13.70
2018-06-02T03:45:57.259Z,13.70
2018-06-02T03:48:25.658Z,13.70
2018-06-02T03:50:54.134Z,13.70
2018-06-02T03:53:22.678Z,13.70
2018-06-02T03:55:51.247Z,13.70
2018-06-02T03:58:19.835Z,13.70
2018-06-02T04:00:49.023Z,13.80
2018-06-02T04:03:17.562Z,13.80
2018-06-02T04:05:45.991Z,13.90
2018-06-02T04:08:15.127Z,14.10
2018-06-02T04:10:43.491Z,14.10
2018-06-02T04:13:11.904Z,14.30
2018-06-02T04:15:40.334Z,14.40
2018-06-02T04:18:11.259Z,14.60
2018-06-02T04:20:40.111Z,14.60
2018-06-02T04:23:10.471Z,14.90
2018-06-02T04:25:38.887Z,14.90
2018-06-02T04:28:07.304Z,15.00
2018-06-02T04:30:35.683Z,15.20
2018-06-02T04:33:04.991Z,15.50
2018-06-02T04:35:33.575Z,15.40
2018-06-02T04:38:01.971Z,15.60
2018-06-02T04:40:30.364Z,15.70
2018-06-02T04:42:59.004Z,15.90
2018-06-02T04:45:27.563Z,16.00
2018-06-02T04:47:56.123Z,16.20
2018-06-02T04:50:24.520Z,16.30
2018-06-02T04:52:52.998Z,16.50
2018-06-02T04:55:21.411Z,16.60
2018-06-02T04:57:49.763Z,16.80
2018-06-02T05:00:20.902Z,17.00
2018-06-02T05:02:49.291Z,17.00
2018-06-02T05:05:17.659Z,17.20
2018-06-02T05:07:46.079Z,17.30
2018-06-02T05:10:14.483Z,17.50
2018-06-02T05:12:42.910Z,17.60
2018-06-02T05:15:11.379Z,17.80
2018-06-02T05:17:39.887Z,17.90
2018-06-02T05:20:10.195Z,18.20
2018-06-02T05:22:39.012Z,18.20
2018-06-02T05:25:08.339Z,18.50
2018-06-02T05:27:36.903Z,18.50
2018-06-02T05:30:06.263Z,18.80
2018-06-02T05:32:34.671Z,18.70
2018-06-02T05:35:03.108Z,18.90
2018-06-02T05:37:31.609Z,19.00
2018-06-02T05:40:00.003Z,19.20
2018-06-02T05:42:29.171Z,19.50
2018-06-02T05:44:57.575Z,19.40
2018-06-02T05:47:26.173Z,19.60
2018-06-02T05:49:57.610Z,19.90
2018-06-02T05:52:26.822Z,20.00
2018-06-02T05:54:55.223Z,20.00
2018-06-02T05:57:24.382Z,20.30
2018-06-02T05:59:52.835Z,20.30
2018-06-02T06:02:21.310Z,20.50
2018-06-02T06:04:49.899Z,20.60
2018-06-02T06:07:18.299Z,20.70
2018-06-02T06:09:46.737Z,20.90
2018-06-02T06:12:15.282Z,21.00
2018-06-02T06:14:44.590Z,21.30
2018-06-02T06:17:13.070Z,21.30
2018-06-02T06:19:41.567Z,21.50
2018-06-02T06:22:10.511Z,21.70
2018-06-02T06:24:39.143Z,21.80
2018-06-02T06:27:07.563Z,22.00
2018-06-02T06:29:35.939Z,22.20
2018-06-02T06:32:04.375Z,22.30
2018-06-02T06:34:33.272Z,22.20
2018-06-02T06:37:01.671Z,22.70
2018-06-02T06:39:30.163Z,22.80
2018-06-02T06:41:58.548Z,23.00
2018-06-02T06:44:27.076Z,23.10
2018-06-02T06:46:55.406Z,23.30
2018-06-02T06:49:23.838Z,23.60
2018-06-02T06:51:52.250Z,24.10
2018-06-02T06:54:21.398Z,25.30
2018-06-02T06:56:49.779Z,25.30
2018-06-02T06:59:18.353Z,26.00
2018-06-02T07:01:46.928Z,26.90
2018-06-02T07:04:16.126Z,27.60
2018-06-02T07:06:44.564Z,28.20
2018-06-02T07:09:13.767Z,29.30
2018-06-02T07:11:42.146Z,29.30
2018-06-02T07:14:11.341Z,30.60
2018-06-02T07:16:39.914Z,30.50
2018-06-02T07:19:08.315Z,31.10
2018-06-02T07:21:36.723Z,31.60
2018-06-02T07:24:05.159Z,32.10
2018-06-02T07:26:33.622Z,32.60
2018-06-02T07:29:02.191Z,33.00
2018-06-02T07:31:31.360Z,33.90
2018-06-02T07:33:59.739Z,33.80
2018-06-02T07:36:28.135Z,34.10
2018-06-02T07:38:56.615Z,34.10
2018-06-02T07:41:25.192Z,33.90
2018-06-02T07:43:53.618Z,33.90
2018-06-02T07:46:22.803Z,33.60
2018-06-02T07:48:51.204Z,33.60
2018-06-02T07:51:20.359Z,32.70
2018-06-02T07:53:48.736Z,32.70
2018-06-02T07:56:17.163Z,32.30
2018-06-02T07:58:46.336Z,32.20
2018-06-02T08:01:14.752Z,32.20
2018-06-02T08:03:43.122Z,32.30
2018-06-02T08:06:11.572Z,32.20
2018-06-02T08:08:42.147Z,32.00
2018-06-02T08:11:10.511Z,31.50
2018-06-02T08:13:39.052Z,31.40
2018-06-02T08:16:07.508Z,31.20
2018-06-02T08:18:36.067Z,31.00
2018-06-02T08:21:04.434Z,30.60
2018-06-02T08:23:33.147Z,30.00
2018-06-02T08:26:01.568Z,29.70
2018-06-02T08:28:29.974Z,29.30
2018-06-02T08:30:58.514Z,29.20
2018-06-02T08:33:27.037Z,29.20
2018-06-02T08:35:55.612Z,29.30
2018-06-02T08:38:24.195Z,29.40
2018-06-02T08:40:53.371Z,29.60
2018-06-02T08:43:21.923Z,29.60
2018-06-02T08:45:50.496Z,29.70
2018-06-02T08:48:19.035Z,29.50
2018-06-02T08:50:47.418Z,29.40
2018-06-02T08:53:16.015Z,29.40
2018-06-02T08:55:44.566Z,29.50
2018-06-02T08:58:12.948Z,29.50
2018-06-02T09:00:41.506Z,29.30
2018-06-02T09:03:11.946Z,29.00
2018-06-02T09:05:40.371Z,28.90
2018-06-02T09:08:08.930Z,29.10
2018-06-02T09:10:37.334Z,29.30
2018-06-02T09:13:06.663Z,29.70
2018-06-02T09:15:35.269Z,29.70
2018-06-02T09:18:03.779Z,29.80
2018-06-02T09:20:32.312Z,29.90
2018-06-02T09:23:00.755Z,29.80
2018-06-02T09:25:29.299Z,29.90
2018-06-02T09:27:57.877Z,29.80
2018-06-02T09:30:26.355Z,29.90
2018-06-02T09:32:54.754Z,30.00
2018-06-02T09:35:23.316Z,30.00
2018-06-02T09:37:52.655Z,30.20
2018-06-02T09:40:21.206Z,30.20
2018-06-02T09:42:51.958Z,30.20
2018-06-02T09:45:20.510Z,30.20
2018-06-02T09:47:48.909Z,30.20
2018-06-02T09:50:17.435Z,30.20
2018-06-02T09:52:45.822Z,30.30
2018-06-02T09:55:14.372Z,30.40
2018-06-02T09:57:42.792Z,30.40
2018-06-02T10:00:11.206Z,30.50
2018-06-02T10:02:39.643Z,30.60
2018-06-02T10:05:08.053Z,30.60
2018-06-02T10:07:36.423Z,30.50
2018-06-02T10:10:04.987Z,30.60
2018-06-02T10:12:33.395Z,30.50
2018-06-02T10:15:01.854Z,30.50
2018-06-02T10:17:32.414Z,30.60
2018-06-02T10:20:00.921Z,30.60
2018-06-02T10:22:30.091Z,30.60
2018-06-02T10:24:58.587Z,30.60
2018-06-02T10:27:27.035Z,30.60
2018-06-02T10:29:55.487Z,30.50
2018-06-02T10:32:25.588Z,30.50
2018-06-02T10:34:54.474Z,30.50
2018-06-02T10:37:22.884Z,30.50
2018-06-02T10:39:51.335Z,30.20
2018-06-02T10:42:19.719Z,30.20
2018-06-02T10:44:48.124Z,30.10
2018-06-02T10:47:16.519Z,30.10
2018-06-02T10:49:45.011Z,30.00
2018-06-02T10:52:13.399Z,30.10
2018-06-02T10:54:41.946Z,30.20
2018-06-02T10:57:10.430Z,30.20
2018-06-02T10:59:39.756Z,30.20
2018-06-02T11:02:09.899Z,30.20
2018-06-02T11:04:38.314Z,30.20
2018-06-02T11:07:06.750Z,30.20
2018-06-02T11:09:35.315Z,30.30
2018-06-02T11:12:03.726Z,30.40
2018-06-02T11:14:32.251Z,30.50
2018-06-02T11:17:00.620Z,30.50
2018-06-02T11:19:29.268Z,30.60
2018-06-02T11:21:57.670Z,30.60
2018-06-02T11:24:28.944Z,30.50
2018-06-02T11:26:58.117Z,30.40
2018-06-02T11:29:26.711Z,30.30
2018-06-02T11:31:57.103Z,30.30
2018-06-02T11:34:25.527Z,30.40
2018-06-02T11:36:53.986Z,30.30
2018-06-02T11:39:22.415Z,30.30
2018-06-02T11:41:51.022Z,30.50
2018-06-02T11:44:19.510Z,30.60
2018-06-02T11:46:47.922Z,30.60
2018-06-02T11:49:16.402Z,30.70
2018-06-02T11:51:44.848Z,30.60
2018-06-02T11:54:13.271Z,30.60
2018-06-02T11:56:41.687Z,30.60
2018-06-02T11:59:10.603Z,30.60
2018-06-02T12:01:39.779Z,30.70
2018-06-02T12:04:09.165Z,30.70
2018-06-02T12:06:38.495Z,30.60
2018-06-02T12:09:09.187Z,30.70
2018-06-02T12:11:37.662Z,30.70
2018-06-02T12:14:06.072Z,30.80
2018-06-02T12:16:34.502Z,30.80
2018-06-02T12:19:02.947Z,30.90
2018-06-02T12:21:32.171Z,30.90
2018-06-02T12:24:00.696Z,30.90
2018-06-02T12:26:30.103Z,30.90
2018-06-02T12:28:59.300Z,30.80
2018-06-02T12:31:28.362Z,30.80
2018-06-02T12:33:57.564Z,30.80
2018-06-02T12:36:26.131Z,30.70
2018-06-02T12:38:54.622Z,30.80
2018-06-02T12:41:23.069Z,30.90
2018-06-02T12:43:51.506Z,31.00
2018-06-02T12:46:19.935Z,31.00
2018-06-02T12:48:49.167Z,31.10
2018-06-02T12:51:17.718Z,31.10
2018-06-02T12:53:46.199Z,31.10
2018-06-02T12:56:14.795Z,31.00
2018-06-02T12:58:43.355Z,31.00
2018-06-02T13:01:11.919Z,31.10
2018-06-02T13:03:41.246Z,31.10
2018-06-02T13:06:10.729Z,31.10
2018-06-02T13:08:39.331Z,31.10
2018-06-02T13:11:08.659Z,31.30
2018-06-02T13:13:37.163Z,31.30
2018-06-02T13:16:05.734Z,31.40
2018-06-02T13:18:34.333Z,31.50
2018-06-02T13:21:02.887Z,31.60
2018-06-02T13:23:31.402Z,31.60
2018-06-02T13:25:59.965Z,31.60
2018-06-02T13:28:29.818Z,31.60
2018-06-02T13:30:58.389Z,31.60
2018-06-02T13:33:26.975Z,31.50
2018-06-02T13:35:55.555Z,31.50
2018-06-02T13:38:24.052Z,31.50
2018-06-02T13:40:52.531Z,31.60
2018-06-02T13:43:21.084Z,31.60
2018-06-02T13:45:50.409Z,31.60
2018-06-02T13:48:18.892Z,31.60
2018-06-02T13:50:48.295Z,31.60
2018-06-02T13:53:16.760Z,31.70
2018-06-02T13:55:46.035Z,31.70
2018-06-02T13:58:14.535Z,31.70
2018-06-02T14:00:43.084Z,31.70
2018-06-02T14:03:11.494Z,31.70
2018-06-02T14:05:40.088Z,31.70
2018-06-02T14:08:09.355Z,31.80
2018-06-02T14:10:37.922Z,31.80
2018-06-02T14:13:06.333Z,31.90
2018-06-02T14:15:34.894Z,32.00
2018-06-02T14:18:03.335Z,32.00
2018-06-02T14:20:31.805Z,32.00
2018-06-02T14:23:00.251Z,32.10
2018-06-02T14:25:29.545Z,32.40
2018-06-02T14:27:57.945Z,32.30
2018-06-02T14:30:28.130Z,32.40
2018-06-02T14:32:57.279Z,32.50
2018-06-02T14:35:26.435Z,32.50
2018-06-02T14:37:55.870Z,32.50
2018-06-02T14:40:25.652Z,32.70
2018-06-02T14:42:54.475Z,32.60
2018-06-02T14:45:22.973Z,32.60
2018-06-02T14:47:51.404Z,32.60
2018-06-02T14:50:19.959Z,32.70
2018-06-02T14:52:49.272Z,32.70
2018-06-02T14:55:17.903Z,32.80
2018-06-02T14:57:46.351Z,32.80
2018-06-02T15:00:14.797Z,32.70
2018-06-02T15:02:44.129Z,32.70
2018-06-02T15:05:12.624Z,32.70
2018-06-02T15:07:41.211Z,32.80
2018-06-02T15:10:09.596Z,32.80
2018-06-02T15:12:38.024Z,32.80
2018-06-02T15:15:06.460Z,32.70
2018-06-02T15:17:34.917Z,32.70
2018-06-02T15:20:03.283Z,32.80
2018-06-02T15:22:32.416Z,32.60
2018-06-02T15:25:01.035Z,32.60
2018-06-02T15:27:29.424Z,32.60
2018-06-02T15:29:57.790Z,32.60
2018-06-02T15:32:27.119Z,32.60
2018-06-02T15:34:55.528Z,32.70
2018-06-02T15:37:23.991Z,32.70
2018-06-02T15:39:52.535Z,32.70
2018-06-02T15:42:20.946Z,32.70
2018-06-02T15:44:49.468Z,32.60
2018-06-02T15:47:18.037Z,32.60
2018-06-02T15:49:46.887Z,32.60
2018-06-02T15:52:15.298Z,32.70
2018-06-02T15:54:44.472Z,32.70
2018-06-02T15:57:12.847Z,32.70
2018-06-02T15:59:41.238Z,32.70
2018-06-02T16:02:11.364Z,32.70
2018-06-02T16:04:39.809Z,32.70
2018-06-02T16:07:08.244Z,32.80
2018-06-02T16:09:36.681Z,32.90
2018-06-02T16:12:06.188Z,32.90
2018-06-02T16:14:34.610Z,32.90
2018-06-02T16:17:03.013Z,32.90
2018-06-02T16:19:31.470Z,32.80
2018-06-02T16:21:59.975Z,32.80
2018-06-02T16:24:28.311Z,32.70
2018-06-02T16:26:57.454Z,32.70
2018-06-02T16:29:25.931Z,32.70
2018-06-02T16:31:54.351Z,32.70
2018-06-02T16:34:22.874Z,32.50
2018-06-02T16:36:52.688Z,32.50
2018-06-02T16:39:21.273Z,32.50
2018-06-02T16:41:49.707Z,32.50
2018-06-02T16:44:18.103Z,32.50
2018-06-02T16:46:47.302Z,32.50
2018-06-02T16:49:16.615Z,32.40
2018-06-02T16:51:46.350Z,32.40
2018-06-02T16:54:14.810Z,32.30
2018-06-02T16:56:43.998Z,32.30
2018-06-02T16:59:12.446Z,32.40
2018-06-02T17:01:40.991Z,32.30
2018-06-02T17:04:09.439Z,32.20
2018-06-02T17:06:38.758Z,32.00
2018-06-02T17:09:07.131Z,31.90
2018-06-02T17:11:35.562Z,31.90
2018-06-02T17:14:04.006Z,31.90
2018-06-02T17:16:32.575Z,31.90
2018-06-02T17:19:01.144Z,31.80
2018-06-02T17:21:30.291Z,31.80
2018-06-02T17:23:58.873Z,31.80
2018-06-02T17:26:27.319Z,31.70
2018-06-02T17:28:55.870Z,31.60
2018-06-02T17:31:26.744Z,31.50
2018-06-02T17:33:55.251Z,31.50
2018-06-02T17:36:23.804Z,31.50
2018-06-02T17:38:52.239Z,31.40
2018-06-02T17:41:21.558Z,31.40
2018-06-02T17:43:50.134Z,31.40
2018-06-02T17:46:18.530Z,31.30
2018-06-02T17:48:47.103Z,31.30
2018-06-02T17:51:15.515Z,31.20
2018-06-02T17:53:44.988Z,31.20
2018-06-02T17:56:13.554Z,31.10
2018-06-02T17:58:42.703Z,31.00
2018-06-02T18:01:11.630Z,31.00
2018-06-02T18:03:40.923Z,31.00
2018-06-02T18:06:11.231Z,30.90
2018-06-02T18:08:39.757Z,30.90
2018-06-02T18:11:08.774Z,30.80
2018-06-02T18:13:37.183Z,30.70
2018-06-02T18:16:06.976Z,30.60
2018-06-02T18:18:35.528Z,30.50
2018-06-02T18:21:03.894Z,30.30
2018-06-02T18:23:32.304Z,29.90
2018-06-02T18:26:00.870Z,29.50
2018-06-02T18:28:29.262Z,29.20
2018-06-02T18:31:01.991Z,28.70
2018-06-02T18:36:34.751Z,28.70
2018-06-02T18:39:04.651Z,28.50
2018-06-02T18:41:33.947Z,28.40
2018-06-02T18:44:03.397Z,28.30
2018-06-02T18:46:32.771Z,28.30
2018-06-02T18:49:02.119Z,28.20
2018-06-02T18:51:31.734Z,28.20
2018-06-02T18:54:01.087Z,28.00
2018-06-02T18:56:30.409Z,27.90
2018-06-02T18:58:59.732Z,27.90
2018-06-02T19:01:29.179Z,27.80
2018-06-02T19:03:58.519Z,27.70
2018-06-02T19:06:27.998Z,27.50
2018-06-02T19:08:57.295Z,27.40
2018-06-02T19:11:26.654Z,27.20
2018-06-02T19:13:56.085Z,27.10
2018-06-02T19:16:25.484Z,26.90
2018-06-02T19:18:54.819Z,26.80
2018-06-02T19:21:24.111Z,26.70
2018-06-02T19:23:53.599Z,26.70
2018-06-02T19:26:23.079Z,26.70
2018-06-02T19:28:52.407Z,26.60
2018-06-02T19:31:21.868Z,26.60
2018-06-02T19:33:51.224Z,26.60
2018-06-02T19:36:20.958Z,26.60
2018-06-02T19:38:50.288Z,26.60
2018-06-02T19:41:19.674Z,26.50
2018-06-02T19:43:49.094Z,26.50
2018-06-02T19:46:18.551Z,26.40
2018-06-02T19:48:47.992Z,26.30
2018-06-02T19:51:17.366Z,26.30
2018-06-02T19:53:46.852Z,26.10
2018-06-02T19:56:16.367Z,25.80
2018-06-02T19:58:45.861Z,25.40
2018-06-02T20:01:15.259Z,25.30
2018-06-02T20:03:44.634Z,25.30
2018-06-02T20:06:14.099Z,25.10
2018-06-02T20:08:43.476Z,24.80
2018-06-02T20:11:12.811Z,24.60
2018-06-02T20:13:42.199Z,24.60
2018-06-02T20:16:12.443Z,24.40
2018-06-02T20:18:41.786Z,24.30
2018-06-02T20:21:11.083Z,24.00
2018-06-02T20:23:40.671Z,23.80
2018-06-02T20:26:10.146Z,23.80
2018-06-02T20:28:40.657Z,23.70
2018-06-02T20:31:10.115Z,23.70
2018-06-02T20:33:39.570Z,23.60
2018-06-02T20:36:09.167Z,23.60
2018-06-02T20:38:38.591Z,23.60
2018-06-02T20:41:07.912Z,23.60
2018-06-02T20:43:37.265Z,23.70
2018-06-02T20:46:06.715Z,23.70
2018-06-02T20:48:36.031Z,23.80
2018-06-02T20:51:05.502Z,23.90
2018-06-02T20:53:36.095Z,23.90
2018-06-02T20:56:05.451Z,23.90
2018-06-02T20:58:34.974Z,23.90
2018-06-02T21:01:04.427Z,23.80
2018-06-02T21:03:33.755Z,23.70
2018-06-02T21:06:03.195Z,23.70
2018-06-02T21:08:32.551Z,23.60
2018-06-02T21:11:02.073Z,23.30
2018-06-02T21:13:31.397Z,22.90
2018-06-02T21:16:00.901Z,22.80
2018-06-02T21:18:30.210Z,22.80
2018-06-02T21:21:01.071Z,22.80
2018-06-02T21:23:30.458Z,22.80
2018-06-02T21:25:59.838Z,22.80
2018-06-02T21:28:29.159Z,22.90
2018-06-02T21:30:58.670Z,22.90
2018-06-02T21:33:28.735Z,22.80
2018-06-02T21:35:57.440Z,22.80
2018-06-02T21:38:26.775Z,22.70
2018-06-02T21:40:56.275Z,22.70
2018-06-02T21:43:25.586Z,22.60
2018-06-02T21:45:54.963Z,22.40
2018-06-02T21:48:24.269Z,22.40
2018-06-02T21:50:53.739Z,22.30
2018-06-02T21:53:23.102Z,22.10
2018-06-02T21:55:53.003Z,22.00
2018-06-02T21:58:22.331Z,21.90
2018-06-02T22:00:51.725Z,21.80
2018-06-02T22:03:21.208Z,21.70
2018-06-02T22:05:51.878Z,21.60
2018-06-02T22:08:21.305Z,21.50
2018-06-02T22:10:50.843Z,21.40
2018-06-02T22:13:20.203Z,21.30
2018-06-02T22:15:49.606Z,21.20
2018-06-02T22:18:18.927Z,21.20
2018-06-02T22:20:48.364Z,21.10
2018-06-02T22:23:17.687Z,21.10
2018-06-02T22:25:47.035Z,21.10
2018-06-02T22:28:16.342Z,21.10
2018-06-02T22:30:45.943Z,21.10
2018-06-02T22:33:15.283Z,21.20
2018-06-02T22:35:44.631Z,21.10
2018-06-02T22:38:14.003Z,21.20
2018-06-02T22:40:43.345Z,21.20
2018-06-02T22:43:12.655Z,21.20
2018-06-02T22:45:42.157Z,21.10
2018-06-02T22:51:25.083Z,21.00
2018-06-02T22:56:23.631Z,20.70
2018-06-02T22:58:53.202Z,20.60
2018-06-02T23:01:22.770Z,20.50
2018-06-02T23:03:52.158Z,20.40
2018-06-02T23:06:21.778Z,20.30
2018-06-02T23:08:51.205Z,20.20
2018-06-02T23:11:20.563Z,20.20
2018-06-02T23:13:49.950Z,20.10
2018-06-02T23:16:19.418Z,20.00
2018-06-02T23:18:48.987Z,19.90
2018-06-02T23:21:18.441Z,19.80
2018-06-02T23:23:47.783Z,19.70
2018-06-02T23:26:17.276Z,19.60
2018-06-02T23:28:46.770Z,19.60
2018-06-02T23:31:16.235Z,19.40
2018-06-02T23:33:45.540Z,19.40
2018-06-02T23:36:15.007Z,19.30
2018-06-02T23:38:44.460Z,19.20
2018-06-02T23:41:15.023Z,19.10
2018-06-02T23:43:44.365Z,19.00
2018-06-02T23:46:13.866Z,18.80
2018-06-02T23:48:43.181Z,18.80
2018-06-02T23:51:12.918Z,18.70
2018-06-02T23:53:42.314Z,18.60
2018-06-02T23:56:12.791Z,18.60
2018-06-02T23:58:42.078Z,18.60
